createdAt,value
2023-03-14T00:01:18.437Z,98796.97
2023-03-14T00:03:44.860Z,98796.97
2023-03-14T00:06:12.462Z,98786.25
2023-03-14T00:08:39.080Z,98791.50
2023-03-14T00:11:10.296Z,98809.06
2023-03-14T00:13:37.040Z,98789.41
2023-03-14T00:16:09.033Z,98798.31
2023-03-14T00:18:36.130Z,98805.69
2023-03-14T00:21:04.149Z,98794.09
2023-03-14T00:23:31.952Z,98802.78
2023-03-14T00:26:23.516Z,98815.88
2023-03-14T00:28:54.561Z,98793.59
2023-03-14T00:31:21.197Z,98805.66
2023-03-14T00:33:47.607Z,98816.66
2023-03-14T00:36:16.940Z,98809.84
2023-03-14T00:38:45.007Z,98802.50
2023-03-14T00:41:14.669Z,98822.44
2023-03-14T00:43:41.096Z,98823.25
2023-03-14T00:46:08.938Z,98806.72
2023-03-14T00:48:35.754Z,98809.06
2023-03-14T00:51:04.535Z,98799.88
2023-03-14T00:53:30.936Z,98816.41
2023-03-14T00:55:57.397Z,98811.16
2023-03-14T00:58:24.689Z,98809.59
2023-03-14T01:00:51.061Z,98809.56
2023-03-14T01:03:17.500Z,98805.63
2023-03-14T01:05:43.950Z,98813.75
2023-03-14T01:08:10.374Z,98809.06
2023-03-14T01:10:40.533Z,98803.03
2023-03-14T01:13:07.244Z,98806.19
2023-03-14T01:15:35.244Z,98816.38
2023-03-14T01:18:01.842Z,98793.81
2023-03-14T01:20:28.308Z,98816.91
2023-03-14T01:22:55.199Z,98811.13
2023-03-14T01:25:21.614Z,98810.31
2023-03-14T01:27:47.993Z,98815.56
2023-03-14T01:30:14.678Z,98810.31
2023-03-14T01:32:41.238Z,98806.91
2023-03-14T01:35:08.064Z,98807.44
2023-03-14T01:37:34.451Z,98811.88
2023-03-14T01:40:00.822Z,98809.53
2023-03-14T01:42:27.199Z,98806.31
2023-03-14T01:44:56.491Z,98815.22
2023-03-14T01:47:23.814Z,98814.91
2023-03-14T01:49:56.693Z,98815.13
2023-03-14T01:52:43.140Z,98825.81
2023-03-14T01:55:24.795Z,98813.69
2023-03-14T01:58:04.511Z,98832.84
2023-03-14T02:00:31.557Z,98831.19
2023-03-14T02:03:07.913Z,98833.50
2023-03-14T02:05:38.852Z,98837.13
2023-03-14T02:08:09.066Z,98828.13
2023-03-14T02:10:41.727Z,98833.63
2023-03-14T02:13:08.914Z,98817.53
2023-03-14T02:15:35.821Z,98820.91
2023-03-14T02:18:04.887Z,98812.19
2023-03-14T02:20:52.117Z,98806.56
2023-03-14T02:23:30.267Z,98799.25
2023-03-14T02:26:06.187Z,98809.94
2023-03-14T02:28:32.610Z,98797.31
2023-03-14T02:30:59.193Z,98787.03
2023-03-14T02:33:25.929Z,98795.63
2023-03-14T02:36:00.829Z,98808.38
2023-03-14T02:38:54.990Z,98804.63
2023-03-14T02:41:22.341Z,98798.81
2023-03-14T02:43:48.663Z,98786.50
2023-03-14T02:46:19.025Z,98799.06
2023-03-14T02:49:08.206Z,98806.13
2023-03-14T02:51:35.761Z,98802.19
2023-03-14T02:54:02.193Z,98806.41
2023-03-14T02:56:28.549Z,98794.06
2023-03-14T02:58:54.860Z,98801.47
2023-03-14T03:01:21.252Z,98788.34
2023-03-14T03:03:47.616Z,98774.69
2023-03-14T03:06:14.008Z,98794.16
2023-03-14T03:08:40.488Z,98782.06
2023-03-14T03:11:07.074Z,98785.97
2023-03-14T03:13:33.480Z,98791.22
2023-03-14T03:15:59.826Z,98799.91
2023-03-14T03:18:26.210Z,98794.59
2023-03-14T03:20:52.628Z,98781.25
2023-03-14T03:23:19.019Z,98783.63
2023-03-14T03:25:52.355Z,98795.97
2023-03-14T03:28:19.983Z,98774.66
2023-03-14T03:30:46.576Z,98771.28
2023-03-14T03:33:13.437Z,98774.69
2023-03-14T03:35:50.986Z,98785.78
2023-03-14T03:38:17.449Z,98782.09
2023-03-14T03:40:43.822Z,98780.00
2023-03-14T03:43:10.283Z,98781.53
2023-03-14T03:45:36.650Z,98774.84
2023-03-14T03:48:03.137Z,98777.47
2023-03-14T03:50:29.453Z,98776.91
2023-03-14T03:52:55.831Z,98767.22
2023-03-14T03:55:22.228Z,98758.47
2023-03-14T03:57:48.621Z,98777.47
2023-03-14T04:00:15.216Z,98779.97
2023-03-14T04:02:41.900Z,98788.53
2023-03-14T04:05:08.902Z,98789.13
2023-03-14T04:07:35.299Z,98783.63
2023-03-14T04:10:01.899Z,98783.06
2023-03-14T04:12:28.256Z,98769.22
2023-03-14T04:14:54.607Z,98779.19
2023-03-14T04:17:21.822Z,98772.31
2023-03-14T04:19:49.239Z,98783.13
2023-03-14T04:22:15.655Z,98772.63
2023-03-14T04:24:42.039Z,98750.34
2023-03-14T04:27:08.439Z,98750.34
2023-03-14T04:29:34.856Z,98740.16
2023-03-14T04:32:01.309Z,98765.03
2023-03-14T04:34:27.761Z,98765.88
2023-03-14T04:36:54.232Z,98763.53
2023-03-14T04:39:20.643Z,98753.56
2023-03-14T04:41:47.112Z,98754.34
2023-03-14T04:44:13.546Z,98762.72
2023-03-14T04:46:40.138Z,98756.75
2023-03-14T04:49:06.570Z,98756.00
2023-03-14T04:51:32.907Z,98737.09
2023-03-14T04:53:59.292Z,98755.97
2023-03-14T04:56:25.720Z,98750.72
2023-03-14T04:58:52.184Z,98753.41
2023-03-14T05:01:18.598Z,98745.03
2023-03-14T05:03:44.994Z,98742.50
2023-03-14T05:06:11.503Z,98733.59
2023-03-14T05:08:37.875Z,98730.19
2023-03-14T05:11:04.451Z,98711.59
2023-03-14T05:13:30.874Z,98723.16
2023-03-14T05:16:07.926Z,98727.41
2023-03-14T05:18:34.613Z,98731.56
2023-03-14T05:21:01.293Z,98728.13
2023-03-14T05:23:27.816Z,98736.78
2023-03-14T05:25:54.281Z,98737.28
2023-03-14T05:28:20.818Z,98732.59
2023-03-14T05:30:47.259Z,98735.19
2023-03-14T05:33:13.687Z,98730.81
2023-03-14T05:35:40.223Z,98727.66
2023-03-14T05:38:06.657Z,98721.13
2023-03-14T05:40:33.105Z,98731.38
2023-03-14T05:42:59.525Z,98730.03
2023-03-14T05:45:26.076Z,98732.72
2023-03-14T05:47:52.576Z,98726.13
2023-03-14T05:50:19.012Z,98721.91
2023-03-14T05:52:45.434Z,98728.13
2023-03-14T05:55:11.802Z,98721.00
2023-03-14T05:57:38.315Z,98725.44
2023-03-14T06:00:05.438Z,98728.28
2023-03-14T06:02:31.822Z,98714.91
2023-03-14T06:04:58.218Z,98725.16
2023-03-14T06:07:24.628Z,98726.41
2023-03-14T06:09:51.098Z,98732.34
2023-03-14T06:12:17.460Z,98727.91
2023-03-14T06:14:43.836Z,98715.13
2023-03-14T06:17:10.249Z,98727.13
2023-03-14T06:19:36.582Z,98729.25
2023-03-14T06:22:02.983Z,98731.88
2023-03-14T06:24:29.631Z,98725.56
2023-03-14T06:26:56.061Z,98721.88
2023-03-14T06:29:22.410Z,98729.69
2023-03-14T06:31:48.819Z,98719.25
2023-03-14T06:34:15.281Z,98730.25
2023-03-14T06:36:41.696Z,98722.66
2023-03-14T06:39:08.115Z,98728.34
2023-03-14T06:41:34.515Z,98717.97
2023-03-14T06:44:00.899Z,98727.88
2023-03-14T06:46:27.655Z,98727.13
2023-03-14T06:48:54.261Z,98722.69
2023-03-14T06:51:20.714Z,98729.50
2023-03-14T06:53:47.386Z,98730.88
2023-03-14T06:56:13.958Z,98725.06
2023-03-14T06:58:40.437Z,98730.63
2023-03-14T07:01:07.202Z,98726.97
2023-03-14T07:03:33.577Z,98745.34
2023-03-14T07:05:59.994Z,98752.91
2023-03-14T07:08:26.566Z,98740.34
2023-03-14T07:10:53.038Z,98745.59
2023-03-14T07:13:19.456Z,98759.72
2023-03-14T07:15:45.837Z,98768.34
2023-03-14T07:18:12.286Z,98792.59
2023-03-14T07:20:38.679Z,98828.03
2023-03-14T07:23:05.029Z,98841.59
2023-03-14T07:25:31.420Z,98840.88
2023-03-14T07:27:57.762Z,98878.75
2023-03-14T07:30:24.125Z,98878.59
2023-03-14T07:32:50.632Z,98872.75
2023-03-14T07:35:17.170Z,98888.19
2023-03-14T07:37:43.498Z,98893.44
2023-03-14T07:40:10.586Z,98920.63
2023-03-14T07:42:37.003Z,98919.00
2023-03-14T07:45:03.625Z,98924.22
2023-03-14T07:47:30.054Z,98943.16
2023-03-14T07:49:56.557Z,98957.31
2023-03-14T07:52:22.919Z,98950.13
2023-03-14T07:54:49.343Z,98965.63
2023-03-14T07:57:15.692Z,98964.53
2023-03-14T07:59:42.055Z,98983.31
2023-03-14T08:02:11.926Z,98985.16
2023-03-14T08:04:39.082Z,98981.66
2023-03-14T08:07:05.406Z,98990.03
2023-03-14T08:09:31.738Z,99001.25
2023-03-14T08:11:58.835Z,99016.53
2023-03-14T08:14:25.247Z,99013.47
2023-03-14T08:16:52.316Z,99038.06
2023-03-14T08:19:18.776Z,99064.72
2023-03-14T08:21:45.131Z,99057.50
2023-03-14T08:24:11.498Z,99099.25
2023-03-14T08:26:37.872Z,99107.03
2023-03-14T08:29:04.303Z,99122.69
2023-03-14T08:31:30.990Z,99127.66
2023-03-14T08:34:00.211Z,99143.09
2023-03-14T08:36:26.644Z,99149.00
2023-03-14T08:38:53.049Z,99169.03
2023-03-14T08:41:19.484Z,99190.22
2023-03-14T08:43:45.916Z,99193.31
2023-03-14T08:46:12.360Z,99206.03
2023-03-14T08:48:38.750Z,99222.41
2023-03-14T08:51:09.777Z,99238.81
2023-03-14T08:53:36.176Z,99235.19
2023-03-14T08:56:02.664Z,99261.41
2023-03-14T08:58:30.402Z,99258.63
2023-03-14T09:00:56.850Z,99273.59
2023-03-14T09:03:23.423Z,99286.78
2023-03-14T09:05:51.431Z,99296.91
2023-03-14T09:08:18.058Z,99290.69
2023-03-14T09:10:44.520Z,99316.03
2023-03-14T09:13:11.016Z,99322.44
2023-03-14T09:15:37.447Z,99337.34
2023-03-14T09:18:03.944Z,99338.97
2023-03-14T09:20:30.424Z,99358.66
2023-03-14T09:22:56.871Z,99365.22
2023-03-14T09:25:23.283Z,99385.38
2023-03-14T09:27:49.681Z,99387.63
2023-03-14T09:30:16.169Z,99394.38
2023-03-14T09:32:42.636Z,99396.44
2023-03-14T09:35:09.624Z,99413.22
2023-03-14T09:37:36.075Z,99419.00
2023-03-14T09:40:02.507Z,99419.59
2023-03-14T09:42:28.986Z,99435.94
2023-03-14T09:45:02.606Z,99433.13
2023-03-14T09:47:29.582Z,99448.91
2023-03-14T09:49:55.933Z,99452.69
2023-03-14T09:52:40.775Z,99474.06
2023-03-14T09:55:12.046Z,99483.09
2023-03-14T09:57:38.756Z,99479.94
2023-03-14T10:00:12.231Z,99493.66
2023-03-14T10:02:39.819Z,99511.41
2023-03-14T10:05:15.380Z,99514.19
2023-03-14T10:07:42.195Z,99513.03
2023-03-14T10:10:15.041Z,99528.59
2023-03-14T10:12:41.720Z,99536.75
2023-03-14T10:15:14.836Z,99548.88
2023-03-14T10:17:51.968Z,99547.56
2023-03-14T10:20:39.742Z,99570.13
2023-03-14T10:23:22.154Z,99590.53
2023-03-14T10:26:06.175Z,99606.69
2023-03-14T10:28:48.137Z,99621.50
2023-03-14T10:31:17.375Z,99628.88
2023-03-14T10:34:00.188Z,99643.88
2023-03-14T10:36:32.037Z,99644.28
2023-03-14T10:39:24.545Z,99652.44
2023-03-14T10:41:57.384Z,99642.22
2023-03-14T10:44:29.566Z,99665.81
2023-03-14T10:47:30.493Z,99669.38
2023-03-14T10:49:58.274Z,99697.41
2023-03-14T10:52:35.732Z,99706.19
2023-03-14T10:55:13.106Z,99717.78
2023-03-14T10:57:43.612Z,99725.78
2023-03-14T11:00:18.196Z,99746.81
2023-03-14T11:03:12.784Z,99752.16
2023-03-14T11:05:50.643Z,99779.97
2023-03-14T11:08:35.345Z,99784.03
2023-03-14T11:11:26.661Z,99794.63
2023-03-14T11:14:16.234Z,99792.44
2023-03-14T11:16:48.382Z,99804.84
2023-03-14T11:19:49.007Z,99814.63
2023-03-14T11:22:15.382Z,99824.66
2023-03-14T11:25:18.983Z,99845.44
2023-03-14T11:27:54.300Z,99846.63
2023-03-14T11:30:48.664Z,99842.75
2023-03-14T11:33:32.752Z,99859.75
2023-03-14T11:36:07.553Z,99870.75
2023-03-14T11:38:47.457Z,99882.59
2023-03-14T11:41:21.184Z,99891.16
2023-03-14T11:43:56.720Z,99898.31
2023-03-14T11:46:35.558Z,99905.09
2023-03-14T11:49:14.460Z,99911.97
2023-03-14T11:51:44.390Z,99919.63
2023-03-14T11:54:16.509Z,99920.38
2023-03-14T11:56:55.961Z,99933.75
2023-03-14T11:59:30.290Z,99934.94
2023-03-14T12:02:11.842Z,99946.09
2023-03-14T12:04:44.855Z,99947.97
2023-03-14T12:07:21.361Z,99953.25
2023-03-14T12:09:51.924Z,99958.00
2023-03-14T12:12:23.186Z,99967.94
2023-03-14T12:15:04.323Z,99968.19
2023-03-14T12:17:42.566Z,99978.44
2023-03-14T12:20:25.175Z,99994.19
2023-03-14T12:22:55.101Z,99994.94
2023-03-14T12:25:27.318Z,100003.03
2023-03-14T12:27:56.583Z,100011.06
2023-03-14T12:30:30.525Z,100005.41
2023-03-14T12:33:18.643Z,100025.81
2023-03-14T12:35:47.016Z,100033.09
2023-03-14T12:38:22.473Z,100038.38
2023-03-14T12:41:01.110Z,100033.34
2023-03-14T12:43:31.295Z,100049.78
2023-03-14T12:46:27.891Z,100064.28
2023-03-14T12:49:03.076Z,100065.66
2023-03-14T12:51:36.098Z,100064.69
2023-03-14T12:54:34.189Z,100074.09
2023-03-14T12:57:09.406Z,100070.88
2023-03-14T12:59:38.602Z,100085.50
2023-03-14T13:02:08.044Z,100085.28
2023-03-14T13:04:47.093Z,100097.06
2023-03-14T13:07:30.357Z,100100.03
2023-03-14T13:10:01.027Z,100099.47
2023-03-14T13:12:30.947Z,100108.09
2023-03-14T13:14:59.787Z,100119.16
2023-03-14T13:17:36.863Z,100123.78
2023-03-14T13:20:19.447Z,100147.25
2023-03-14T13:22:50.486Z,100140.22
2023-03-14T13:25:17.193Z,100146.03
2023-03-14T13:27:43.838Z,100147.47
2023-03-14T13:30:17.420Z,100165.50
2023-03-14T13:32:45.390Z,100175.91
2023-03-14T13:35:20.716Z,100187.31
2023-03-14T13:37:48.676Z,100191.44
2023-03-14T13:40:29.231Z,100189.06
2023-03-14T13:43:11.976Z,100199.25
2023-03-14T13:46:06.438Z,100215.88
2023-03-14T13:48:36.221Z,100217.88
2023-03-14T13:51:06.379Z,100221.50
2023-03-14T13:53:42.685Z,100231.72
2023-03-14T13:56:12.910Z,100240.72
2023-03-14T13:58:40.537Z,100247.22
2023-03-14T14:01:15.224Z,100255.25
2023-03-14T14:03:44.669Z,100255.25
2023-03-14T14:06:35.125Z,100277.31
2023-03-14T14:09:05.235Z,100275.25
2023-03-14T14:12:03.516Z,100286.34
2023-03-14T14:14:44.140Z,100293.19
2023-03-14T14:17:19.385Z,100307.84
2023-03-14T14:19:47.899Z,100303.84
2023-03-14T14:22:14.757Z,100316.91
2023-03-14T14:24:41.601Z,100317.13
2023-03-14T14:27:26.376Z,100334.41
2023-03-14T14:29:59.689Z,100341.63
2023-03-14T14:32:26.258Z,100350.44
2023-03-14T14:34:55.340Z,100347.03
2023-03-14T14:37:35.688Z,100358.88
2023-03-14T14:40:11.530Z,100364.31
2023-03-14T14:42:41.776Z,100352.25
2023-03-14T14:45:15.052Z,100367.00
2023-03-14T14:47:51.514Z,100375.56
2023-03-14T14:50:29.557Z,100385.84
2023-03-14T14:53:01.654Z,100385.38
2023-03-14T14:55:39.968Z,100394.75
2023-03-14T14:58:23.757Z,100395.84
2023-03-14T15:01:17.298Z,100407.78
2023-03-14T15:03:50.663Z,100413.81
2023-03-14T15:06:18.439Z,100420.09
2023-03-14T15:08:47.013Z,100428.41
2023-03-14T15:11:25.373Z,100423.91
2023-03-14T15:13:52.256Z,100425.50
2023-03-14T15:16:22.476Z,100433.25
2023-03-14T15:18:54.719Z,100448.81
2023-03-14T15:21:21.132Z,100456.81
2023-03-14T15:23:47.498Z,100455.69
2023-03-14T15:26:17.100Z,100457.78
2023-03-14T15:28:43.465Z,100465.69
2023-03-14T15:31:12.012Z,100462.06
2023-03-14T15:33:38.887Z,100476.75
2023-03-14T15:36:07.777Z,100470.19
2023-03-14T15:38:34.157Z,100483.38
2023-03-14T15:41:00.540Z,100493.28
2023-03-14T15:43:26.862Z,100490.75
2023-03-14T15:45:53.268Z,100493.44
2023-03-14T15:48:21.308Z,100489.81
2023-03-14T15:50:48.099Z,100500.09
2023-03-14T15:53:15.124Z,100508.59
2023-03-14T15:55:41.432Z,100514.41
2023-03-14T15:58:17.925Z,100512.66
2023-03-14T16:00:45.313Z,100523.94
2023-03-14T16:03:11.668Z,100523.38
2023-03-14T16:05:38.163Z,100535.94
2023-03-14T16:08:04.592Z,100530.63
2023-03-14T16:10:31.314Z,100543.63
2023-03-14T16:12:58.485Z,100557.59
2023-03-14T16:15:25.292Z,100560.28
2023-03-14T16:17:55.152Z,100559.34
2023-03-14T16:20:22.485Z,100558.91
2023-03-14T16:22:49.361Z,100561.00
2023-03-14T16:25:17.607Z,100577.47
2023-03-14T16:27:44.050Z,100578.50
2023-03-14T16:30:11.385Z,100578.59
2023-03-14T16:32:37.850Z,100585.94
2023-03-14T16:35:04.536Z,100602.78
2023-03-14T16:37:30.872Z,100602.31
2023-03-14T16:40:11.684Z,100616.66
2023-03-14T16:42:46.858Z,100610.97
2023-03-14T16:45:21.708Z,100626.22
2023-03-14T16:47:48.369Z,100616.06
2023-03-14T16:50:15.067Z,100627.19
2023-03-14T16:52:41.401Z,100629.34
2023-03-14T16:55:08.248Z,100635.44
2023-03-14T16:57:34.898Z,100637.53
2023-03-14T17:00:01.281Z,100650.81
2023-03-14T17:02:27.580Z,100647.25
2023-03-14T17:04:53.922Z,100661.34
2023-03-14T17:07:20.233Z,100666.56
2023-03-14T17:09:48.218Z,100661.09
2023-03-14T17:12:14.563Z,100667.41
2023-03-14T17:14:40.937Z,100675.19
2023-03-14T17:17:07.353Z,100678.31
2023-03-14T17:19:33.705Z,100680.44
2023-03-14T17:22:21.154Z,100682.41
2023-03-14T17:24:46.452Z,100680.00
2023-03-14T17:27:12.738Z,100699.25
2023-03-14T17:29:39.217Z,100700.25
2023-03-14T17:32:05.656Z,100709.81
2023-03-14T17:34:32.021Z,100703.31
2023-03-14T17:36:58.358Z,100717.09
2023-03-14T17:39:24.684Z,100711.59
2023-03-14T17:41:51.003Z,100722.31
2023-03-14T17:44:17.417Z,100730.28
2023-03-14T17:46:43.833Z,100724.47
2023-03-14T17:49:10.222Z,100728.91
2023-03-14T17:51:36.474Z,100739.44
2023-03-14T17:54:02.822Z,100742.56
2023-03-14T17:56:29.133Z,100744.84
2023-03-14T17:58:57.352Z,100743.41
2023-03-14T18:01:24.094Z,100752.31
2023-03-14T18:03:50.675Z,100756.72
2023-03-14T18:06:17.997Z,100747.81
2023-03-14T18:08:44.880Z,100761.13
2023-03-14T18:11:12.220Z,100760.00
2023-03-14T18:13:38.931Z,100767.78
2023-03-14T18:16:06.164Z,100780.75
2023-03-14T18:18:33.329Z,100785.75
2023-03-14T18:20:59.715Z,100791.78
2023-03-14T18:23:26.046Z,100799.06
2023-03-14T18:25:52.432Z,100803.41
2023-03-14T18:28:19.113Z,100808.78
2023-03-14T18:30:45.519Z,100818.66
2023-03-14T18:33:11.786Z,100828.84
2023-03-14T18:35:38.230Z,100829.00
2023-03-14T18:38:04.603Z,100846.16
2023-03-14T18:40:30.902Z,100843.09
2023-03-14T18:42:57.292Z,100847.63
2023-03-14T18:45:23.568Z,100855.88
2023-03-14T18:47:49.989Z,100848.59
2023-03-14T18:50:16.584Z,100849.22
2023-03-14T18:52:42.942Z,100858.94
2023-03-14T18:55:09.303Z,100859.25
2023-03-14T18:57:35.631Z,100859.22
2023-03-14T19:00:01.894Z,100859.56
2023-03-14T19:02:28.375Z,100862.13
2023-03-14T19:04:54.739Z,100866.00
2023-03-14T19:07:24.344Z,100868.38
2023-03-14T19:09:50.800Z,100872.41
2023-03-14T19:12:17.189Z,100869.16
2023-03-14T19:14:43.455Z,100873.69
2023-03-14T19:17:09.809Z,100876.22
2023-03-14T19:19:36.156Z,100880.75
2023-03-14T19:22:02.511Z,100872.00
2023-03-14T19:24:28.754Z,100875.69
2023-03-14T19:26:55.908Z,100873.22
2023-03-14T19:29:22.336Z,100874.81
2023-03-14T19:31:48.784Z,100873.78
2023-03-14T19:34:15.215Z,100868.88
2023-03-14T19:36:41.462Z,100867.84
2023-03-14T19:39:07.845Z,100872.16
2023-03-14T19:41:34.292Z,100885.84
2023-03-14T19:44:00.929Z,100881.53
2023-03-14T19:46:27.533Z,100877.44
2023-03-14T19:48:53.834Z,100887.25
2023-03-14T19:51:20.819Z,100890.06
2023-03-14T19:53:47.144Z,100895.38
2023-03-14T19:56:13.544Z,100896.50
2023-03-14T19:58:40.430Z,100900.84
2023-03-14T20:01:08.256Z,100893.53
2023-03-14T20:03:35.909Z,100884.16
2023-03-14T20:06:09.393Z,100887.97
2023-03-14T20:08:35.786Z,100899.66
2023-03-14T20:11:06.324Z,100901.72
2023-03-14T20:13:33.064Z,100900.22
2023-03-14T20:15:59.459Z,100904.06
2023-03-14T20:18:25.735Z,100906.16
2023-03-14T20:20:52.118Z,100911.31
2023-03-14T20:23:18.433Z,100922.44
2023-03-14T20:25:53.721Z,100910.78
2023-03-14T20:28:20.483Z,100918.09
2023-03-14T20:30:46.970Z,100920.00
2023-03-14T20:33:13.329Z,100914.03
2023-03-14T20:35:39.716Z,100909.09
2023-03-14T20:38:06.060Z,100920.47
2023-03-14T20:40:32.475Z,100922.63
2023-03-14T20:43:00.224Z,100934.41
2023-03-14T20:45:26.637Z,100928.59
2023-03-14T20:47:52.875Z,100941.22
2023-03-14T20:50:19.315Z,100947.50
2023-03-14T20:52:45.750Z,100952.81
2023-03-14T20:55:12.280Z,100951.63
2023-03-14T20:57:38.604Z,100956.13
2023-03-14T21:00:05.568Z,100960.22
2023-03-14T21:05:16.953Z,100971.72
2023-03-14T21:07:43.297Z,100965.22
2023-03-14T21:10:11.534Z,100955.75
2023-03-14T21:12:37.904Z,100962.00
2023-03-14T21:15:06.111Z,100959.59
2023-03-14T21:17:32.439Z,100960.53
2023-03-14T21:19:59.308Z,100964.75
2023-03-14T21:22:26.561Z,100953.75
2023-03-14T21:24:53.823Z,100949.25
2023-03-14T21:27:20.717Z,100950.88
2023-03-14T21:29:47.557Z,100947.03
2023-03-14T21:32:14.110Z,100942.97
2023-03-14T21:34:40.514Z,100958.03
2023-03-14T21:37:06.776Z,100962.53
2023-03-14T21:39:33.081Z,100961.88
2023-03-14T21:41:59.407Z,100964.19
2023-03-14T21:44:25.695Z,100959.69
2023-03-14T21:46:52.053Z,100952.97
2023-03-14T21:49:18.811Z,100947.38
2023-03-14T21:51:45.317Z,100958.75
2023-03-14T21:54:13.286Z,100953.69
2023-03-14T21:56:39.940Z,100950.66
2023-03-14T21:59:06.572Z,100954.16
2023-03-14T22:01:32.980Z,100952.44
2023-03-14T22:04:01.985Z,100948.34
2023-03-14T22:06:29.199Z,100963.13
2023-03-14T22:08:55.840Z,100957.19
2023-03-14T22:11:23.815Z,100959.88
2023-03-14T22:13:50.501Z,100978.84
2023-03-14T22:16:16.889Z,100986.81
2023-03-14T22:18:43.121Z,101013.59
2023-03-14T22:21:09.451Z,101011.34
2023-03-14T22:23:35.747Z,101019.31
2023-03-14T22:26:02.101Z,101030.72
2023-03-14T22:28:28.509Z,101028.44
2023-03-14T22:30:54.812Z,101029.00
2023-03-14T22:33:21.154Z,101026.88
2023-03-14T22:35:52.072Z,101020.50
2023-03-14T22:38:18.750Z,101019.50
2023-03-14T22:40:45.418Z,101037.88
2023-03-14T22:43:11.807Z,101040.78
2023-03-14T22:45:38.121Z,101041.44
2023-03-14T22:48:04.848Z,101044.44
2023-03-14T22:50:31.247Z,101061.75
2023-03-14T22:52:57.502Z,101058.22
2023-03-14T22:55:23.840Z,101061.22
2023-03-14T22:57:53.223Z,101076.22
2023-03-14T23:00:20.197Z,101074.28
2023-03-14T23:02:46.702Z,101081.78
2023-03-14T23:05:13.090Z,101071.34
2023-03-14T23:07:39.384Z,101071.91
2023-03-14T23:10:06.450Z,101055.09
2023-03-14T23:12:32.743Z,101051.31
2023-03-14T23:14:59.236Z,101061.28
2023-03-14T23:17:25.684Z,101045.69
2023-03-14T23:19:53.694Z,101048.00
2023-03-14T23:22:20.420Z,101045.69
2023-03-14T23:24:46.710Z,101044.22
2023-03-14T23:27:13.072Z,101038.53
2023-03-14T23:29:39.352Z,101046.00
2023-03-14T23:32:05.767Z,101058.09
2023-03-14T23:34:32.104Z,101060.13
2023-03-14T23:36:58.527Z,101066.28
2023-03-14T23:39:24.774Z,101070.47
2023-03-14T23:41:51.145Z,101076.19
2023-03-14T23:44:17.590Z,101064.63
2023-03-14T23:46:43.892Z,101062.03
2023-03-14T23:49:10.218Z,101063.94
2023-03-14T23:51:36.578Z,101069.53
2023-03-14T23:54:02.914Z,101079.44
2023-03-14T23:56:29.243Z,101079.06
2023-03-14T23:58:55.582Z,101079.06
